DLH124 EDDH-EDDS
Flight info
| Callsign | DLH124 |
|---|---|
| Flight time | 0h 57m |
| Altitude | 35000 |
| Route | IDEKO7G/33 IDEKO N850 NIE DCT BERXO DCT SILWE DCT OSBIT P605 TOSTU T726 LBU |
| Aircraft | A35K/H-SDE2E3GHIJ3J4J5LM1ORWXY/LB1D1 |
Departure
| Time | 2026-05-05 19:00 |
|---|---|
| Airport | Hamburg Helmut Schmidt Airport (EDDH) |
Arrival
| Time | 2026-05-05 19:58 |
|---|---|
| Airport | Stuttgart Airport (EDDS) |
| Time | Latitude | Longitude | Altitude | Speed | Heading |
|---|---|---|---|---|---|
| 2026-05-05 18:14 | 53.63358 | 10.00336 | 50 ft | 0 kts | 86° |
| 2026-05-05 18:31 | 53.63359 | 10.00362 | 69 ft | 0 kts | 86° |
| 2026-05-05 18:33 | 53.63009 | 10.00349 | 51 ft | 0 kts | 123° |
| 2026-05-05 18:52 | 53.63011 | 10.00343 | 51 ft | 3 kts | 123° |
| 2026-05-05 18:53 | 53.63024 | 10.00310 | 49 ft | 3 kts | 123° |
| 2026-05-05 18:53 | 53.63034 | 10.00283 | 49 ft | 3 kts | 129° |
| 2026-05-05 18:53 | 53.63050 | 10.00255 | 49 ft | 3 kts | 143° |
| 2026-05-05 18:53 | 53.63070 | 10.00235 | 54 ft | 3 kts | 162° |
| 2026-05-05 18:54 | 53.63090 | 10.00228 | 49 ft | 3 kts | 176° |
| 2026-05-05 18:54 | 53.63113 | 10.00225 | 49 ft | 3 kts | 176° |
| 2026-05-05 18:54 | 53.63101 | 10.00227 | 49 ft | 4 kts | 176° |
| 2026-05-05 18:54 | 53.63072 | 10.00230 | 49 ft | 3 kts | 176° |
| 2026-05-05 18:55 | 53.63071 | 10.00230 | 49 ft | 0 kts | 176° |
| 2026-05-05 18:57 | 53.63063 | 10.00221 | 49 ft | 5 kts | 206° |
| 2026-05-05 18:57 | 53.62987 | 10.00144 | 50 ft | 19 kts | 211° |
| 2026-05-05 18:58 | 53.62927 | 10.00082 | 50 ft | 3 kts | 212° |
| 2026-05-05 18:58 | 53.62886 | 10.00044 | 50 ft | 10 kts | 211° |
| 2026-05-05 18:58 | 53.62850 | 9.99978 | 54 ft | 0 kts | 244° |
| 2026-05-05 18:59 | 53.62841 | 9.99946 | 50 ft | 11 kts | 244° |
| 2026-05-05 18:59 | 53.62834 | 9.99761 | 51 ft | 10 kts | 304° |
| 2026-05-05 18:59 | 53.62869 | 9.99732 | 49 ft | 17 kts | 334° |
| 2026-05-05 18:59 | 53.63275 | 9.99391 | 50 ft | 119 kts | 332° |
| 2026-05-05 19:00 | 53.64307 | 9.98528 | 209 ft | 202 kts | 337° |
| 2026-05-05 19:00 | 53.65701 | 9.97398 | 1023 ft | 237 kts | 337° |
| 2026-05-05 19:00 | 53.67205 | 9.96115 | 2050 ft | 244 kts | 336° |
| 2026-05-05 19:00 | 53.68670 | 9.94823 | 3343 ft | 230 kts | 335° |
| 2026-05-05 19:01 | 53.70026 | 9.93587 | 4300 ft | 218 kts | 330° |
| 2026-05-05 19:01 | 53.71077 | 9.91856 | 4974 ft | 222 kts | 301° |
| 2026-05-05 19:01 | 53.71434 | 9.89282 | 5647 ft | 238 kts | 266° |
| 2026-05-05 19:01 | 53.71023 | 9.86505 | 6242 ft | 256 kts | 250° |
| 2026-05-05 19:02 | 53.70400 | 9.83646 | 7176 ft | 259 kts | 251° |
| 2026-05-05 19:02 | 53.69798 | 9.80762 | 8244 ft | 261 kts | 251° |
| 2026-05-05 19:02 | 53.69202 | 9.77819 | 9167 ft | 270 kts | 251° |
| 2026-05-05 19:02 | 53.68594 | 9.74788 | 9754 ft | 274 kts | 252° |
| 2026-05-05 19:03 | 53.67991 | 9.71723 | 9907 ft | 275 kts | 251° |
| 2026-05-05 19:03 | 53.67379 | 9.68638 | 9901 ft | 275 kts | 251° |
| 2026-05-05 19:03 | 53.66772 | 9.65605 | 10056 ft | 277 kts | 251° |
| 2026-05-05 19:03 | 53.65949 | 9.62575 | 10304 ft | 295 kts | 239° |
| 2026-05-05 19:04 | 53.64566 | 9.59808 | 10668 ft | 322 kts | 221° |
| 2026-05-05 19:04 | 53.62645 | 9.57833 | 11371 ft | 335 kts | 204° |
| 2026-05-05 19:04 | 53.60324 | 9.56861 | 12280 ft | 345 kts | 189° |
| 2026-05-05 19:04 | 53.57933 | 9.56406 | 13140 ft | 352 kts | 187° |
| 2026-05-05 19:05 | 53.55478 | 9.55962 | 14000 ft | 358 kts | 187° |
| 2026-05-05 19:05 | 53.52991 | 9.55491 | 14807 ft | 363 kts | 187° |
| 2026-05-05 19:05 | 53.50459 | 9.55002 | 15632 ft | 367 kts | 188° |
| 2026-05-05 19:05 | 53.47843 | 9.54492 | 16473 ft | 372 kts | 188° |
| 2026-05-05 19:06 | 53.45323 | 9.53999 | 17288 ft | 376 kts | 188° |
| 2026-05-05 19:06 | 53.42702 | 9.53485 | 18144 ft | 380 kts | 188° |
| 2026-05-05 19:06 | 53.40091 | 9.52973 | 18894 ft | 384 kts | 188° |
| 2026-05-05 19:06 | 53.37400 | 9.52446 | 19705 ft | 387 kts | 188° |
| 2026-05-05 19:07 | 53.34740 | 9.51924 | 20524 ft | 389 kts | 188° |
| 2026-05-05 19:07 | 53.32924 | 9.51569 | 21062 ft | 391 kts | 188° |
| 2026-05-05 19:07 | 53.29317 | 9.50870 | 22134 ft | 396 kts | 188° |
| 2026-05-05 19:07 | 53.26568 | 9.50331 | 22922 ft | 399 kts | 189° |
| 2026-05-05 19:08 | 53.23799 | 9.49787 | 23668 ft | 402 kts | 189° |
| 2026-05-05 19:08 | 53.20998 | 9.49240 | 24327 ft | 406 kts | 189° |
| 2026-05-05 19:08 | 53.18181 | 9.48690 | 24994 ft | 409 kts | 189° |
| 2026-05-05 19:08 | 53.15356 | 9.48140 | 25646 ft | 412 kts | 189° |
| 2026-05-05 19:09 | 53.12488 | 9.47583 | 26293 ft | 415 kts | 189° |
| 2026-05-05 19:09 | 53.09603 | 9.47023 | 26954 ft | 418 kts | 189° |
| 2026-05-05 19:09 | 53.06706 | 9.46461 | 27614 ft | 421 kts | 189° |
| 2026-05-05 19:09 | 53.03822 | 9.45903 | 28244 ft | 424 kts | 189° |
| 2026-05-05 19:10 | 53.00866 | 9.45331 | 28863 ft | 427 kts | 189° |
| 2026-05-05 19:10 | 52.97903 | 9.44757 | 29474 ft | 430 kts | 189° |
| 2026-05-05 19:10 | 52.94925 | 9.44144 | 30034 ft | 433 kts | 190° |
| 2026-05-05 19:10 | 52.91961 | 9.43502 | 30553 ft | 435 kts | 190° |
| 2026-05-05 19:11 | 52.89698 | 9.43006 | 30955 ft | 436 kts | 190° |
| 2026-05-05 19:11 | 52.85949 | 9.42186 | 31578 ft | 438 kts | 189° |
| 2026-05-05 19:11 | 52.82926 | 9.41532 | 32007 ft | 441 kts | 189° |
| 2026-05-05 19:11 | 52.79864 | 9.40875 | 32466 ft | 442 kts | 189° |
| 2026-05-05 19:12 | 52.76797 | 9.40220 | 32919 ft | 443 kts | 189° |
| 2026-05-05 19:12 | 52.73748 | 9.39572 | 33358 ft | 445 kts | 189° |
| 2026-05-05 19:12 | 52.70676 | 9.38922 | 33915 ft | 443 kts | 189° |
| 2026-05-05 19:12 | 52.67625 | 9.38279 | 34369 ft | 442 kts | 189° |
| 2026-05-05 19:13 | 52.64554 | 9.37797 | 34638 ft | 446 kts | 185° |
| 2026-05-05 19:13 | 52.61406 | 9.37931 | 34828 ft | 453 kts | 177° |
| 2026-05-05 19:13 | 52.55182 | 9.39832 | 34860 ft | 456 kts | 171° |
| 2026-05-05 19:14 | 52.50036 | 9.41805 | 34856 ft | 456 kts | 170° |
| 2026-05-05 19:14 | 52.42842 | 9.44583 | 34856 ft | 456 kts | 170° |
| 2026-05-05 19:15 | 52.37696 | 9.46520 | 34849 ft | 456 kts | 170° |
| 2026-05-05 19:15 | 52.31504 | 9.48820 | 34852 ft | 455 kts | 170° |
| 2026-05-05 19:16 | 52.25315 | 9.51107 | 34849 ft | 455 kts | 170° |
| 2026-05-05 19:16 | 52.19170 | 9.53374 | 34844 ft | 455 kts | 170° |
| 2026-05-05 19:17 | 52.13002 | 9.55644 | 34831 ft | 455 kts | 169° |
| 2026-05-05 19:17 | 52.06829 | 9.57907 | 34827 ft | 453 kts | 169° |
| 2026-05-05 19:18 | 52.00675 | 9.60160 | 34824 ft | 453 kts | 169° |
| 2026-05-05 19:18 | 51.94517 | 9.62408 | 34825 ft | 453 kts | 169° |
| 2026-05-05 19:19 | 51.88364 | 9.64647 | 34817 ft | 453 kts | 169° |
| 2026-05-05 19:19 | 51.82254 | 9.66864 | 34819 ft | 452 kts | 169° |
| 2026-05-05 19:20 | 51.76126 | 9.69081 | 34816 ft | 451 kts | 169° |
| 2026-05-05 19:20 | 51.69994 | 9.71294 | 34807 ft | 451 kts | 169° |
| 2026-05-05 19:21 | 51.63838 | 9.73509 | 34800 ft | 451 kts | 169° |
| 2026-05-05 19:21 | 51.57706 | 9.75709 | 34803 ft | 450 kts | 169° |
| 2026-05-05 19:22 | 51.51634 | 9.77882 | 34804 ft | 450 kts | 169° |
| 2026-05-05 19:22 | 51.45498 | 9.80072 | 34801 ft | 450 kts | 169° |
| 2026-05-05 19:23 | 51.39365 | 9.82254 | 34792 ft | 450 kts | 168° |
| 2026-05-05 19:23 | 51.33243 | 9.84426 | 34795 ft | 451 kts | 168° |
| 2026-05-05 19:24 | 51.27125 | 9.86591 | 34796 ft | 452 kts | 168° |
| 2026-05-05 19:24 | 51.20920 | 9.87951 | 34793 ft | 451 kts | 180° |
| 2026-05-05 19:25 | 51.14642 | 9.87614 | 34790 ft | 451 kts | 182° |
| 2026-05-05 19:25 | 51.08390 | 9.87030 | 34795 ft | 453 kts | 182° |
| 2026-05-05 19:26 | 51.02092 | 9.86438 | 34795 ft | 454 kts | 182° |
| 2026-05-05 19:26 | 50.95771 | 9.85874 | 34791 ft | 454 kts | 182° |
| 2026-05-05 19:27 | 50.89503 | 9.85328 | 34689 ft | 452 kts | 182° |
| 2026-05-05 19:27 | 50.86360 | 9.85056 | 34450 ft | 453 kts | 181° |
| 2026-05-05 19:27 | 50.83212 | 9.84785 | 34219 ft | 454 kts | 181° |
| 2026-05-05 19:28 | 50.80049 | 9.84512 | 33990 ft | 454 kts | 181° |
| 2026-05-05 19:28 | 50.76876 | 9.84239 | 33565 ft | 454 kts | 181° |
| 2026-05-05 19:28 | 50.73725 | 9.83969 | 33080 ft | 455 kts | 181° |
| 2026-05-05 19:28 | 50.70552 | 9.83698 | 32596 ft | 457 kts | 181° |
| 2026-05-05 19:29 | 50.67384 | 9.83427 | 32113 ft | 460 kts | 181° |
| 2026-05-05 19:29 | 50.64186 | 9.83155 | 31623 ft | 463 kts | 181° |
| 2026-05-05 19:29 | 50.60958 | 9.82879 | 31153 ft | 466 kts | 181° |
| 2026-05-05 19:29 | 50.57708 | 9.82601 | 30699 ft | 468 kts | 181° |
| 2026-05-05 19:30 | 50.54443 | 9.82322 | 30245 ft | 470 kts | 181° |
| 2026-05-05 19:30 | 50.51175 | 9.82042 | 29797 ft | 473 kts | 181° |
| 2026-05-05 19:30 | 50.47869 | 9.81760 | 29294 ft | 474 kts | 181° |
| 2026-05-05 19:30 | 50.44582 | 9.81479 | 28781 ft | 473 kts | 181° |
| 2026-05-05 19:31 | 50.41341 | 9.81203 | 28300 ft | 471 kts | 181° |
| 2026-05-05 19:31 | 50.38051 | 9.80924 | 27811 ft | 470 kts | 181° |
| 2026-05-05 19:31 | 50.34809 | 9.80648 | 27341 ft | 467 kts | 181° |
| 2026-05-05 19:31 | 50.31560 | 9.80374 | 26870 ft | 464 kts | 181° |
| 2026-05-05 19:32 | 50.28344 | 9.80102 | 26408 ft | 461 kts | 181° |
| 2026-05-05 19:32 | 50.25148 | 9.79828 | 25965 ft | 459 kts | 182° |
| 2026-05-05 19:32 | 50.21964 | 9.79517 | 25503 ft | 456 kts | 182° |
| 2026-05-05 19:32 | 50.18840 | 9.79185 | 25077 ft | 454 kts | 182° |
| 2026-05-05 19:33 | 50.15671 | 9.78841 | 24480 ft | 453 kts | 183° |
| 2026-05-05 19:33 | 50.12544 | 9.78502 | 23925 ft | 449 kts | 183° |
| 2026-05-05 19:33 | 50.09432 | 9.78169 | 23322 ft | 446 kts | 183° |
| 2026-05-05 19:33 | 50.06340 | 9.77843 | 22642 ft | 442 kts | 183° |
| 2026-05-05 19:34 | 50.03285 | 9.77526 | 21952 ft | 438 kts | 183° |
| 2026-05-05 19:34 | 50.00292 | 9.77217 | 21206 ft | 427 kts | 184° |
| 2026-05-05 19:34 | 49.97331 | 9.76914 | 20347 ft | 424 kts | 184° |
| 2026-05-05 19:35 | 49.91493 | 9.76319 | 18647 ft | 416 kts | 185° |
| 2026-05-05 19:35 | 49.88620 | 9.76025 | 17781 ft | 411 kts | 185° |
| 2026-05-05 19:35 | 49.85812 | 9.75738 | 16873 ft | 406 kts | 185° |
| 2026-05-05 19:35 | 49.83010 | 9.75451 | 15971 ft | 401 kts | 185° |
| 2026-05-05 19:36 | 49.80238 | 9.75170 | 15120 ft | 397 kts | 185° |
| 2026-05-05 19:36 | 49.77492 | 9.74890 | 14259 ft | 393 kts | 186° |
| 2026-05-05 19:36 | 49.74776 | 9.74611 | 13416 ft | 389 kts | 186° |
| 2026-05-05 19:36 | 49.72082 | 9.74335 | 12550 ft | 384 kts | 186° |
| 2026-05-05 19:37 | 49.69422 | 9.74061 | 12029 ft | 383 kts | 186° |
| 2026-05-05 19:37 | 49.66787 | 9.73792 | 11840 ft | 377 kts | 186° |
| 2026-05-05 19:37 | 49.64208 | 9.73529 | 11827 ft | 375 kts | 186° |
| 2026-05-05 19:37 | 49.61607 | 9.73264 | 11825 ft | 375 kts | 186° |
| 2026-05-05 19:38 | 49.58993 | 9.72996 | 11824 ft | 375 kts | 186° |
| 2026-05-05 19:38 | 49.56381 | 9.72728 | 11831 ft | 375 kts | 186° |
| 2026-05-05 19:38 | 49.53771 | 9.72626 | 11827 ft | 376 kts | 179° |
| 2026-05-05 19:38 | 49.51186 | 9.73256 | 11832 ft | 378 kts | 169° |
| 2026-05-05 19:39 | 49.48647 | 9.74386 | 11828 ft | 380 kts | 164° |
| 2026-05-05 19:39 | 49.46153 | 9.75768 | 11827 ft | 381 kts | 162° |
| 2026-05-05 19:39 | 49.43684 | 9.77257 | 11673 ft | 381 kts | 161° |
| 2026-05-05 19:39 | 49.41231 | 9.78771 | 11224 ft | 380 kts | 161° |
| 2026-05-05 19:40 | 49.38812 | 9.80256 | 10721 ft | 377 kts | 161° |
| 2026-05-05 19:40 | 49.36391 | 9.81722 | 10246 ft | 367 kts | 162° |
| 2026-05-05 19:40 | 49.34018 | 9.83139 | 9783 ft | 357 kts | 162° |
| 2026-05-05 19:40 | 49.31754 | 9.84477 | 9264 ft | 347 kts | 163° |
| 2026-05-05 19:41 | 49.29534 | 9.85778 | 8764 ft | 338 kts | 163° |
| 2026-05-05 19:41 | 49.27374 | 9.87040 | 8240 ft | 319 kts | 163° |
| 2026-05-05 19:41 | 49.25368 | 9.88216 | 7710 ft | 299 kts | 163° |
| 2026-05-05 19:41 | 49.23465 | 9.89327 | 7118 ft | 286 kts | 164° |
| 2026-05-05 19:42 | 49.21660 | 9.90355 | 6523 ft | 275 kts | 167° |
| 2026-05-05 19:42 | 49.19809 | 9.90982 | 5916 ft | 265 kts | 178° |
| 2026-05-05 19:42 | 49.18006 | 9.91126 | 5294 ft | 262 kts | 184° |
| 2026-05-05 19:42 | 49.16187 | 9.91138 | 4671 ft | 261 kts | 184° |
| 2026-05-05 19:43 | 49.14378 | 9.91097 | 4031 ft | 259 kts | 185° |
| 2026-05-05 19:43 | 49.12581 | 9.91025 | 3430 ft | 257 kts | 185° |
| 2026-05-05 19:43 | 49.10802 | 9.90928 | 3078 ft | 256 kts | 185° |
| 2026-05-05 19:43 | 49.09011 | 9.90828 | 2980 ft | 257 kts | 185° |
| 2026-05-05 19:44 | 49.07242 | 9.90724 | 2996 ft | 255 kts | 185° |
| 2026-05-05 19:44 | 49.05470 | 9.90615 | 2998 ft | 255 kts | 185° |
| 2026-05-05 19:44 | 49.03708 | 9.90504 | 2981 ft | 255 kts | 185° |
| 2026-05-05 19:44 | 49.01936 | 9.90390 | 2997 ft | 256 kts | 186° |
| 2026-05-05 19:45 | 49.00153 | 9.90277 | 2988 ft | 256 kts | 185° |
| 2026-05-05 19:45 | 48.98362 | 9.90169 | 2978 ft | 256 kts | 186° |
| 2026-05-05 19:45 | 48.96587 | 9.90058 | 2983 ft | 255 kts | 186° |
| 2026-05-05 19:45 | 48.94815 | 9.89942 | 2998 ft | 256 kts | 185° |
| 2026-05-05 19:46 | 48.93039 | 9.89830 | 2999 ft | 256 kts | 186° |
| 2026-05-05 19:46 | 48.91252 | 9.89720 | 2997 ft | 256 kts | 186° |
| 2026-05-05 19:46 | 48.89503 | 9.89607 | 2999 ft | 255 kts | 186° |
| 2026-05-05 19:46 | 48.87728 | 9.89488 | 2973 ft | 255 kts | 185° |
| 2026-05-05 19:47 | 48.85953 | 9.89366 | 3000 ft | 257 kts | 185° |
| 2026-05-05 19:47 | 48.84159 | 9.89192 | 2988 ft | 257 kts | 189° |
| 2026-05-05 19:47 | 48.82481 | 9.88342 | 3000 ft | 254 kts | 212° |
| 2026-05-05 19:47 | 48.81199 | 9.86560 | 2995 ft | 251 kts | 237° |
| 2026-05-05 19:48 | 48.80593 | 9.84096 | 2996 ft | 250 kts | 258° |
| 2026-05-05 19:48 | 48.80230 | 9.81530 | 2998 ft | 248 kts | 255° |
| 2026-05-05 19:48 | 48.79789 | 9.79027 | 2994 ft | 250 kts | 254° |
| 2026-05-05 19:48 | 48.79312 | 9.76480 | 2996 ft | 251 kts | 253° |
| 2026-05-05 19:49 | 48.78823 | 9.73932 | 2996 ft | 251 kts | 253° |
| 2026-05-05 19:49 | 48.78497 | 9.72260 | 2998 ft | 250 kts | 253° |
| 2026-05-05 19:49 | 48.77833 | 9.68873 | 2994 ft | 250 kts | 253° |
| 2026-05-05 19:49 | 48.77340 | 9.66413 | 2998 ft | 236 kts | 253° |
| 2026-05-05 19:50 | 48.76900 | 9.64184 | 3014 ft | 206 kts | 253° |
| 2026-05-05 19:50 | 48.76512 | 9.62170 | 3025 ft | 196 kts | 253° |
| 2026-05-05 19:50 | 48.76138 | 9.60194 | 3029 ft | 193 kts | 254° |
| 2026-05-05 19:50 | 48.75822 | 9.58216 | 3005 ft | 194 kts | 255° |
| 2026-05-05 19:51 | 48.75459 | 9.56250 | 3004 ft | 191 kts | 253° |
| 2026-05-05 19:51 | 48.75108 | 9.54440 | 3034 ft | 164 kts | 253° |
| 2026-05-05 19:51 | 48.74808 | 9.52885 | 3031 ft | 150 kts | 252° |
| 2026-05-05 19:51 | 48.74519 | 9.51379 | 3020 ft | 149 kts | 253° |
| 2026-05-05 19:52 | 48.74241 | 9.49906 | 3000 ft | 138 kts | 253° |
| 2026-05-05 19:52 | 48.73983 | 9.48543 | 3004 ft | 132 kts | 253° |
| 2026-05-05 19:52 | 48.73729 | 9.47201 | 3010 ft | 133 kts | 252° |
| 2026-05-05 19:52 | 48.73479 | 9.45876 | 2972 ft | 126 kts | 252° |
| 2026-05-05 19:53 | 48.73238 | 9.44603 | 3020 ft | 127 kts | 252° |
| 2026-05-05 19:53 | 48.73001 | 9.43342 | 3001 ft | 125 kts | 252° |
| 2026-05-05 19:53 | 48.72757 | 9.42049 | 3000 ft | 126 kts | 252° |
| 2026-05-05 19:53 | 48.72518 | 9.40786 | 3008 ft | 127 kts | 253° |
| 2026-05-05 19:54 | 48.72277 | 9.39507 | 3005 ft | 127 kts | 252° |
| 2026-05-05 19:54 | 48.72037 | 9.38220 | 2984 ft | 126 kts | 252° |
| 2026-05-05 19:54 | 48.71788 | 9.36934 | 2908 ft | 129 kts | 253° |
| 2026-05-05 19:54 | 48.71541 | 9.35638 | 2741 ft | 128 kts | 253° |
| 2026-05-05 19:55 | 48.71293 | 9.34340 | 2552 ft | 127 kts | 253° |
| 2026-05-05 19:55 | 48.71046 | 9.33042 | 2395 ft | 129 kts | 252° |
| 2026-05-05 19:55 | 48.70797 | 9.31735 | 2223 ft | 130 kts | 252° |
| 2026-05-05 19:55 | 48.70545 | 9.30407 | 2041 ft | 133 kts | 252° |
| 2026-05-05 19:56 | 48.70289 | 9.29056 | 1853 ft | 136 kts | 253° |
| 2026-05-05 19:56 | 48.70025 | 9.27668 | 1686 ft | 137 kts | 253° |
| 2026-05-05 19:56 | 48.69760 | 9.26296 | 1441 ft | 134 kts | 252° |
| 2026-05-05 19:56 | 48.69518 | 9.25078 | 1445 ft | 134 kts | 254° |
| 2026-05-05 19:57 | 48.69278 | 9.23725 | 1295 ft | 126 kts | 253° |
| 2026-05-05 19:57 | 48.69140 | 9.23006 | 1292 ft | 78 kts | 253° |
| 2026-05-05 19:57 | 48.68970 | 9.22132 | 1292 ft | 66 kts | 253° |
| 2026-05-05 19:57 | 48.68851 | 9.21498 | 1292 ft | 59 kts | 255° |
| 2026-05-05 19:58 | 48.68845 | 9.20959 | 1292 ft | 41 kts | 282° |
| 2026-05-05 19:58 | 48.68864 | 9.20834 | 1292 ft | 0 kts | 283° |
| 2026-05-05 19:59 | 48.68870 | 9.20804 | 1292 ft | 10 kts | 289° |
| 2026-05-05 20:00 | 48.68939 | 9.20662 | 1292 ft | 24 kts | 313° |
| 2026-05-05 20:00 | 48.69059 | 9.20478 | 1292 ft | 22 kts | 315° |
| 2026-05-05 20:00 | 48.69072 | 9.20448 | 1292 ft | 1 kts | 279° |
| 2026-05-05 20:00 | 48.69060 | 9.20397 | 1292 ft | 12 kts | 249° |
| 2026-05-05 20:01 | 48.69022 | 9.20204 | 1292 ft | 25 kts | 255° |
| 2026-05-05 20:01 | 48.69020 | 9.20143 | 1292 ft | 1 kts | 291° |
| 2026-05-05 20:01 | 48.69057 | 9.20119 | 1292 ft | 12 kts | 345° |
| 2026-05-05 20:01 | 48.69083 | 9.20109 | 1292 ft | 0 kts | 345° |